Time;durP1;ratioP1;P1;durP2;ratioP2;P2;SDS_P1;SDS_P2;PMS_P1;PMS_P2;Temp;Humidity;BMP_temperature;BMP_pressure;BME280_temperature;BME280_humidity;BME280_pressure;Samples;Min_cycle;Max_cycle;Signal;HPM_P1;HPM_P2
2021/12/06 00:00:27;;;;;;;;;;;;;;;;;;5112944;28;19923;-76
2021/12/06 00:02:53;;;;;;;;;;;;;;;;;;5113785;28;19963;-76
2021/12/06 00:05:19;;;;;;;;;;;;;;;;;;5113523;28;19923;-77
2021/12/06 00:07:44;;;;;;;;;;;;;;;;;;5112277;28;19920;-77
2021/12/06 00:10:10;;;;;;;;;;;;;;;;;;5113394;28;19919;-77
2021/12/06 00:12:36;;;;;;;;;;;;;;;;;;5113532;28;19923;-76
2021/12/06 00:15:01;;;;;;;;;;;;;;;;;;5113502;28;19924;-76
2021/12/06 00:17:27;;;;;;;;;;;;;;;;;;5115152;28;19963;-76
2021/12/06 00:19:52;;;;;;;;;;;;;;;;;;5097537;28;20011;-77
2021/12/06 00:22:23;;;;;;;;;;;;;;;;;;5096832;28;19925;-77
2021/12/06 00:24:53;;;;;;;;;;;;;;;;;;5096409;28;19943;-77
2021/12/06 00:27:18;;;;;;;;;;;;;;;;;;5095318;28;19916;-76
2021/12/06 00:29:44;;;;;;;;;;;;;;;;;;5096624;28;19920;-76
2021/12/06 00:32:09;;;;;;;;;;;;;;;;;;5095305;28;19916;-77
2021/12/06 00:34:36;;;;;;;;;;;;;;;;;;5082242;28;19916;-77
2021/12/06 00:37:28;;;;;;;;;;;;;;;;;;5075115;28;20350;-76
2021/12/06 00:39:55;;;;;;;;;;;;;;;;;;5076000;28;19916;-75
2021/12/06 00:42:23;;;;;;;;;;;;;;;;;;5074896;28;20377;-75
2021/12/06 00:44:49;;;;;;;;;;;;;;;;;;5075639;28;19924;-76
2021/12/06 00:47:14;;;;;;;;;;;;;;;;;;5075922;28;19970;-75
2021/12/06 00:49:40;;;;;;;;;;;;;;;;;;5074586;28;19924;-76
2021/12/06 00:52:05;;;;;;;;;;;;;;;;;;5074921;28;19920;-76
2021/12/06 00:54:34;;;;;;;;;;;;;;;;;;5074695;28;20393;-77
2021/12/06 00:57:01;;;;;;;;;;;;;;;;;;5075650;28;20002;-76
2021/12/06 00:59:26;;;;;;;;;;;;;;;;;;5086701;28;20014;-75
2021/12/06 01:01:54;;;;;;;;;;;;;;;;;;5096006;28;20392;-76
2021/12/06 01:04:19;;;;;;;;;;;;;;;;;;5094166;28;19916;-75
2021/12/06 01:06:44;;;;;;;;;;;;;;;;;;5095734;28;19927;-75
2021/12/06 01:09:10;;;;;;;;;;;;;;;;;;5094519;28;19986;-75
2021/12/06 01:11:35;;;;;;;;;;;;;;;;;;5095643;28;19920;-76
2021/12/06 01:14:00;;;;;;;;;;;;;;;;;;5095517;28;19916;-75
2021/12/06 01:16:29;;;;;;;;;;;;;;;;;;5094133;28;19962;-75
2021/12/06 01:18:54;;;;;;;;;;;;;;;;;;5095726;28;20393;-76
2021/12/06 01:21:30;;;;;;;;;;;;;;;;;;5094502;28;19947;-76
2021/12/06 01:23:59;;;;;;;;;;;;;;;;;;5094507;28;19920;-76
2021/12/06 01:41:45;;;;;;;;;;;;;;;;;;5093784;28;20019;-76
2021/12/06 01:44:12;;;;;;;;;;;;;;;;;;5093885;28;19916;-76
2021/12/06 01:46:46;;;;;;;;;;;;;;;;;;5093805;28;20015;-76
2021/12/06 01:49:12;;;;;;;;;;;;;;;;;;5093583;28;19916;-76
2021/12/06 01:51:39;;;;;;;;;;;;;;;;;;5093741;28;19927;-77
2021/12/06 01:54:05;;;;;;;;;;;;;;;;;;5093912;28;19916;-76
2021/12/06 01:56:31;;;;;;;;;;;;;;;;;;5094966;28;19954;-76
2021/12/06 01:58:56;;;;;;;;;;;;;;;;;;5094568;28;19939;-76
2021/12/06 02:01:21;;;;;;;;;;;;;;;;;;5093240;28;19916;-76
2021/12/06 02:03:47;;;;;;;;;;;;;;;;;;5092857;28;19923;-76
2021/12/06 02:06:12;;;;;;;;;;;;;;;;;;5073146;28;19920;-76
2021/12/06 02:08:38;;;;;;;;;;;;;;;;;;5093199;28;20303;-76
2021/12/06 02:11:05;;;;;;;;;;;;;;;;;;5096831;28;19926;-76
2021/12/06 02:13:51;;;;;;;;;;;;;;;;;;5113895;28;19915;-76
2021/12/06 02:16:20;;;;;;;;;;;;;;;;;;5115067;28;19929;-77
2021/12/06 02:18:50;;;;;;;;;;;;;;;;;;5114107;28;19920;-77
2021/12/06 02:21:18;;;;;;;;;;;;;;;;;;5113556;28;19923;-77
2021/12/06 02:23:44;;;;;;;;;;;;;;;;;;5113473;28;20290;-77
2021/12/06 02:26:10;;;;;;;;;;;;;;;;;;5113327;28;19916;-77
2021/12/06 02:28:35;;;;;;;;;;;;;;;;;;5114707;28;19938;-76
2021/12/06 02:31:01;;;;;;;;;;;;;;;;;;5113117;28;19924;-77
2021/12/06 02:33:27;;;;;;;;;;;;;;;;;;5114583;28;20334;-76
2021/12/06 02:35:53;;;;;;;;;;;;;;;;;;5083880;28;19912;-77
2021/12/06 02:38:19;;;;;;;;;;;;;;;;;;5071932;28;19922;-77
2021/12/06 02:40:46;;;;;;;;;;;;;;;;;;5072903;28;20006;-77
2021/12/06 02:43:12;;;;;;;;;;;;;;;;;;5073739;28;19982;-76
2021/12/06 02:45:38;;;;;;;;;;;;;;;;;;5071945;28;19921;-77
2021/12/06 02:48:05;;;;;;;;;;;;;;;;;;5072716;28;19966;-77
2021/12/06 02:50:38;;;;;;;;;;;;;;;;;;5072133;28;19920;-76
2021/12/06 02:53:04;;;;;;;;;;;;;;;;;;5072301;28;20309;-77
2021/12/06 02:55:37;;;;;;;;;;;;;;;;;;5056025;28;19920;-76
2021/12/06 02:58:22;;;;;;;;;;;;;;;;;;5073669;28;20362;-76
2021/12/06 03:00:51;;;;;;;;;;;;;;;;;;5072650;28;19916;-76
2021/12/06 03:03:18;;;;;;;;;;;;;;;;;;5072461;28;19917;-76
2021/12/06 03:05:45;;;;;;;;;;;;;;;;;;5084858;28;20015;-76
2021/12/06 03:08:10;;;;;;;;;;;;;;;;;;5094062;28;19920;-75
2021/12/06 03:10:36;;;;;;;;;;;;;;;;;;5093917;28;19977;-76
2021/12/06 03:13:01;;;;;;;;;;;;;;;;;;5094043;28;20285;-76
2021/12/06 03:15:27;;;;;;;;;;;;;;;;;;5092842;28;19961;-75
2021/12/06 03:17:52;;;;;;;;;;;;;;;;;;5093344;28;19931;-76
2021/12/06 03:20:18;;;;;;;;;;;;;;;;;;5091405;28;19938;-76
2021/12/06 03:22:44;;;;;;;;;;;;;;;;;;5092224;28;20373;-76
2021/12/06 03:25:10;;;;;;;;;;;;;;;;;;5092334;28;20297;-76
2021/12/06 03:27:36;;;;;;;;;;;;;;;;;;5092187;28;19931;-76
2021/12/06 03:30:02;;;;;;;;;;;;;;;;;;5092405;28;19927;-76
2021/12/06 03:32:29;;;;;;;;;;;;;;;;;;5091580;28;19966;-76
2021/12/06 03:34:54;;;;;;;;;;;;;;;;;;5093391;28;19912;-76
2021/12/06 03:37:20;;;;;;;;;;;;;;;;;;5092438;28;19965;-76
2021/12/06 03:39:48;;;;;;;;;;;;;;;;;;5090714;28;20262;-76
2021/12/06 03:42:21;;;;;;;;;;;;;;;;;;5092245;28;19916;-76
2021/12/06 03:44:47;;;;;;;;;;;;;;;;;;5091223;28;19927;-75
2021/12/06 03:47:19;;;;;;;;;;;;;;;;;;5092241;28;19916;-76
2021/12/06 03:49:44;;;;;;;;;;;;;;;;;;5092733;28;20366;-77
2021/12/06 03:52:13;;;;;;;;;;;;;;;;;;5096270;28;19952;-77
2021/12/06 03:54:42;;;;;;;;;;;;;;;;;;5095366;28;20381;-77
2021/12/06 03:57:07;;;;;;;;;;;;;;;;;;5095933;28;19923;-77
2021/12/06 03:59:34;;;;;;;;;;;;;;;;;;5095382;28;19916;-77
2021/12/06 04:01:59;;;;;;;;;;;;;;;;;;5095721;28;19916;-77
2021/12/06 04:04:25;;;;;;;;;;;;;;;;;;5094919;28;19927;-76
2021/12/06 04:06:52;;;;;;;;;;;;;;;;;;5095460;28;19926;-77
2021/12/06 04:09:18;;;;;;;;;;;;;;;;;;5095613;28;19916;-77
2021/12/06 04:11:44;;;;;;;;;;;;;;;;;;5097073;28;19920;-77
2021/12/06 04:14:10;;;;;;;;;;;;;;;;;;5095759;28;19981;-77
2021/12/06 04:16:36;;;;;;;;;;;;;;;;;;5095542;28;19916;-76
2021/12/06 04:19:04;;;;;;;;;;;;;;;;;;5095505;28;19973;-76
2021/12/06 04:21:30;;;;;;;;;;;;;;;;;;5095284;28;19955;-76
2021/12/06 04:23:56;;;;;;;;;;;;;;;;;;5078599;28;19959;-76
2021/12/06 04:26:22;;;;;;;;;;;;;;;;;;5095459;28;20273;-77
2021/12/06 04:28:49;;;;;;;;;;;;;;;;;;5096260;28;19916;-77
2021/12/06 04:31:16;;;;;;;;;;;;;;;;;;5095413;28;19965;-77
2021/12/06 04:33:43;;;;;;;;;;;;;;;;;;5095179;28;19922;-77
2021/12/06 04:36:08;;;;;;;;;;;;;;;;;;5095057;28;20409;-77
2021/12/06 04:38:34;;;;;;;;;;;;;;;;;;5096532;28;20113;-77
2021/12/06 04:41:02;;;;;;;;;;;;;;;;;;5078576;28;19976;-77
2021/12/06 04:43:28;;;;;;;;;;;;;;;;;;5095320;28;19939;-76
2021/12/06 04:45:54;;;;;;;;;;;;;;;;;;5094895;28;20016;-76
2021/12/06 04:48:20;;;;;;;;;;;;;;;;;;5094884;28;19963;-77
2021/12/06 04:50:45;;;;;;;;;;;;;;;;;;5096366;28;19927;-76
2021/12/06 04:53:13;;;;;;;;;;;;;;;;;;5096086;28;19916;-76
2021/12/06 04:55:47;;;;;;;;;;;;;;;;;;5094686;28;19923;-76
2021/12/06 04:58:15;;;;;;;;;;;;;;;;;;5094182;28;19923;-76
2021/12/06 05:00:48;;;;;;;;;;;;;;;;;;5096258;28;19923;-76
2021/12/06 05:03:15;;;;;;;;;;;;;;;;;;5095163;28;20416;-77
2021/12/06 05:05:42;;;;;;;;;;;;;;;;;;5099872;28;19916;-76
2021/12/06 05:08:14;;;;;;;;;;;;;;;;;;5115103;28;19916;-77
2021/12/06 05:10:40;;;;;;;;;;;;;;;;;;5116220;28;19926;-77
2021/12/06 05:13:05;;;;;;;;;;;;;;;;;;5116010;28;20002;-76
2021/12/06 05:15:31;;;;;;;;;;;;;;;;;;5114614;28;19916;-77
2021/12/06 05:17:56;;;;;;;;;;;;;;;;;;5114777;28;19964;-76
2021/12/06 05:20:22;;;;;;;;;;;;;;;;;;5114929;28;19915;-76
2021/12/06 05:22:48;;;;;;;;;;;;;;;;;;5114536;28;20014;-77
2021/12/06 05:25:14;;;;;;;;;;;;;;;;;;5097659;28;20006;-76
2021/12/06 05:27:41;;;;;;;;;;;;;;;;;;5114554;28;19916;-77
2021/12/06 05:30:09;;;;;;;;;;;;;;;;;;5114301;28;20026;-77
2021/12/06 05:32:35;;;;;;;;;;;;;;;;;;5113501;28;20332;-77
2021/12/06 05:35:06;;;;;;;;;;;;;;;;;;5096311;28;19923;-76
2021/12/06 05:37:33;;;;;;;;;;;;;;;;;;5095020;28;19916;-76
2021/12/06 05:39:58;;;;;;;;;;;;;;;;;;5095415;28;19968;-77
2021/12/06 05:42:23;;;;;;;;;;;;;;;;;;5094424;28;19916;-76
2021/12/06 05:44:49;;;;;;;;;;;;;;;;;;5093328;28;20361;-76
2021/12/06 05:47:15;;;;;;;;;;;;;;;;;;5094984;28;19916;-76
2021/12/06 05:49:41;;;;;;;;;;;;;;;;;;5095018;28;19916;-76
2021/12/06 05:52:06;;;;;;;;;;;;;;;;;;5095199;28;20320;-76
2021/12/06 05:54:31;;;;;;;;;;;;;;;;;;5095063;28;20009;-76
2021/12/06 05:56:57;;;;;;;;;;;;;;;;;;5093288;28;20002;-77
2021/12/06 05:59:22;;;;;;;;;;;;;;;;;;5094450;28;20417;-76
2021/12/06 06:01:50;;;;;;;;;;;;;;;;;;5095014;28;19912;-76
2021/12/06 06:04:15;;;;;;;;;;;;;;;;;;5100560;28;20010;-77
2021/12/06 06:06:41;;;;;;;;;;;;;;;;;;5074385;28;19964;-76
2021/12/06 06:09:07;;;;;;;;;;;;;;;;;;5074365;28;19966;-76
2021/12/06 06:11:34;;;;;;;;;;;;;;;;;;5074165;28;19927;-76
2021/12/06 06:14:00;;;;;;;;;;;;;;;;;;5073418;28;19912;-75
2021/12/06 06:16:30;;;;;;;;;;;;;;;;;;5094005;28;19920;-78
2021/12/06 06:18:56;;;;;;;;;;;;;;;;;;5097967;28;19924;-77
2021/12/06 06:21:21;;;;;;;;;;;;;;;;;;5096463;28;19959;-80
2021/12/06 06:23:46;;;;;;;;;;;;;;;;;;5097129;28;19916;-77
2021/12/06 06:26:12;;;;;;;;;;;;;;;;;;5097618;28;20010;-77
2021/12/06 06:28:37;;;;;;;;;;;;;;;;;;5095533;28;19916;-77
2021/12/06 06:31:03;;;;;;;;;;;;;;;;;;5094272;28;19963;-76
2021/12/06 06:33:28;;;;;;;;;;;;;;;;;;5095861;28;20385;-78
2021/12/06 06:35:54;;;;;;;;;;;;;;;;;;5098527;28;19916;-77
2021/12/06 06:38:20;;;;;;;;;;;;;;;;;;5095404;28;19923;-77
2021/12/06 06:40:45;;;;;;;;;;;;;;;;;;5096955;28;19943;-77
2021/12/06 06:43:10;;;;;;;;;;;;;;;;;;5095205;28;20377;-79
2021/12/06 06:45:36;;;;;;;;;;;;;;;;;;5095340;28;20040;-77
2021/12/06 06:48:02;;;;;;;;;;;;;;;;;;5096169;28;19916;-78
2021/12/06 06:50:27;;;;;;;;;;;;;;;;;;5095888;28;19927;-78
2021/12/06 06:52:53;;;;;;;;;;;;;;;;;;5101031;28;20285;-81
2021/12/06 06:55:19;;;;;;;;;;;;;;;;;;5107958;28;20374;-80
2021/12/06 06:57:45;;;;;;;;;;;;;;;;;;5121041;28;19915;-80
2021/12/06 07:00:12;;;;;;;;;;;;;;;;;;5127143;28;19915;-79
2021/12/06 07:02:37;;;;;;;;;;;;;;;;;;5127738;28;19916;-81
2021/12/06 07:05:03;;;;;;;;;;;;;;;;;;5105626;28;19916;-80
2021/12/06 07:07:29;;;;;;;;;;;;;;;;;;5105872;28;20437;-78
2021/12/06 07:09:54;;;;;;;;;;;;;;;;;;5094263;28;19959;-77
2021/12/06 07:12:19;;;;;;;;;;;;;;;;;;5091856;28;19926;-77
2021/12/06 07:14:46;;;;;;;;;;;;;;;;;;5093736;28;19966;-76
2021/12/06 07:17:12;;;;;;;;;;;;;;;;;;5093571;28;19916;-77
2021/12/06 07:19:37;;;;;;;;;;;;;;;;;;5094047;28;19916;-76
2021/12/06 07:22:03;;;;;;;;;;;;;;;;;;5093739;28;20007;-77
2021/12/06 07:24:28;;;;;;;;;;;;;;;;;;5093945;28;19958;-75
2021/12/06 07:26:54;;;;;;;;;;;;;;;;;;5098166;28;19920;-76
2021/12/06 07:29:20;;;;;;;;;;;;;;;;;;5097889;28;19916;-77
2021/12/06 07:31:46;;;;;;;;;;;;;;;;;;5100901;28;19924;-80
2021/12/06 07:34:11;;;;;;;;;;;;;;;;;;5104127;28;19969;-80
2021/12/06 07:36:37;;;;;;;;;;;;;;;;;;5104308;28;19923;-78
2021/12/06 07:39:02;;;;;;;;;;;;;;;;;;5101430;28;20048;-78
2021/12/06 07:41:28;;;;;;;;;;;;;;;;;;5089235;28;19916;-79
2021/12/06 07:43:55;;;;;;;;;;;;;;;;;;5100699;28;19969;-78
2021/12/06 07:46:20;;;;;;;;;;;;;;;;;;5117761;28;19924;-77
2021/12/06 07:48:51;;;;;;;;;;;;;;;;;;5118058;28;20052;-77
2021/12/06 07:51:17;;;;;;;;;;;;;;;;;;5117781;28;19920;-78
2021/12/06 07:53:42;;;;;;;;;;;;;;;;;;5116144;28;19920;-78
2021/12/06 07:56:08;;;;;;;;;;;;;;;;;;5116291;28;19920;-76
2021/12/06 07:58:33;;;;;;;;;;;;;;;;;;5116502;28;19959;-79
2021/12/06 08:00:59;;;;;;;;;;;;;;;;;;5096815;28;19916;-76
2021/12/06 08:03:26;;;;;;;;;;;;;;;;;;5095944;28;20385;-76
2021/12/06 08:05:52;;;;;;;;;;;;;;;;;;5094815;28;20003;-75
2021/12/06 08:08:19;;;;;;;;;;;;;;;;;;5096781;28;20004;-76
2021/12/06 08:10:46;;;;;;;;;;;;;;;;;;5097819;28;19949;-77
2021/12/06 08:13:15;;;;;;;;;;;;;;;;;;5096469;28;19969;-80
2021/12/06 08:15:41;;;;;;;;;;;;;;;;;;5100033;28;19916;-77
2021/12/06 08:18:07;;;;;;;;;;;;;;;;;;5097204;28;19916;-77
2021/12/06 08:20:33;;;;;;;;;;;;;;;;;;5097656;28;19920;-77
2021/12/06 08:22:58;;;;;;;;;;;;;;;;;;5098660;28;20435;-78
2021/12/06 08:25:24;;;;;;;;;;;;;;;;;;5099829;28;19923;-79
2021/12/06 08:27:49;;;;;;;;;;;;;;;;;;5101675;28;19923;-80
2021/12/06 08:30:16;;;;;;;;;;;;;;;;;;5102338;28;19920;-80
2021/12/06 08:32:42;;;;;;;;;;;;;;;;;;5104484;28;19916;-79
2021/12/06 08:35:08;;;;;;;;;;;;;;;;;;5099000;28;19916;-78
2021/12/06 08:37:34;;;;;;;;;;;;;;;;;;5097110;28;19935;-77
2021/12/06 08:40:00;;;;;;;;;;;;;;;;;;5098705;28;20288;-81
2021/12/06 08:42:25;;;;;;;;;;;;;;;;;;5101124;28;19950;-80
2021/12/06 08:44:51;;;;;;;;;;;;;;;;;;5101580;28;19927;-78
2021/12/06 08:47:17;;;;;;;;;;;;;;;;;;5096757;28;19969;-77
2021/12/06 08:49:42;;;;;;;;;;;;;;;;;;5096684;28;19961;-77
2021/12/06 08:52:08;;;;;;;;;;;;;;;;;;5096361;28;19916;-77
2021/12/06 08:54:33;;;;;;;;;;;;;;;;;;5095757;28;19973;-76
2021/12/06 08:56:59;;;;;;;;;;;;;;;;;;5096351;28;19916;-77
2021/12/06 08:59:25;;;;;;;;;;;;;;;;;;5094628;28;19982;-77
2021/12/06 09:01:54;;;;;;;;;;;;;;;;;;5095031;28;20364;-77
2021/12/06 09:04:20;;;;;;;;;;;;;;;;;;5096023;28;19916;-77
2021/12/06 09:06:46;;;;;;;;;;;;;;;;;;5094183;28;19920;-77
2021/12/06 09:09:12;;;;;;;;;;;;;;;;;;5095850;28;19915;-77
2021/12/06 09:11:40;;;;;;;;;;;;;;;;;;5095847;28;19916;-77
2021/12/06 09:14:06;;;;;;;;;;;;;;;;;;5095994;28;20288;-77
2021/12/06 09:16:31;;;;;;;;;;;;;;;;;;5095319;28;19916;-77
2021/12/06 09:18:58;;;;;;;;;;;;;;;;;;5095289;28;19916;-77
2021/12/06 09:21:23;;;;;;;;;;;;;;;;;;5095797;28;19920;-78
2021/12/06 09:23:50;;;;;;;;;;;;;;;;;;5095577;28;19919;-77
2021/12/06 09:26:15;;;;;;;;;;;;;;;;;;5095377;28;19916;-77
2021/12/06 09:28:41;;;;;;;;;;;;;;;;;;5095212;28;20374;-77
2021/12/06 09:31:06;;;;;;;;;;;;;;;;;;5094015;28;20011;-77
2021/12/06 09:33:33;;;;;;;;;;;;;;;;;;5095832;28;20031;-77
2021/12/06 09:35:59;;;;;;;;;;;;;;;;;;5116197;28;19916;-76
2021/12/06 09:38:33;;;;;;;;;;;;;;;;;;5117333;28;19915;-77
2021/12/06 09:40:59;;;;;;;;;;;;;;;;;;5112638;28;19916;-76
2021/12/06 09:43:25;;;;;;;;;;;;;;;;;;5115213;28;19932;-79
2021/12/06 09:45:50;;;;;;;;;;;;;;;;;;5113789;28;19928;-76
2021/12/06 09:48:17;;;;;;;;;;;;;;;;;;5115556;28;20064;-78
2021/12/06 09:50:45;;;;;;;;;;;;;;;;;;5116588;28;21061;-78
2021/12/06 09:53:12;;;;;;;;;;;;;;;;;;5115413;28;20278;-75
2021/12/06 09:55:37;;;;;;;;;;;;;;;;;;5115202;28;19922;-76
2021/12/06 09:58:04;;;;;;;;;;;;;;;;;;5115629;28;19916;-78
2021/12/06 10:00:33;;;;;;;;;;;;;;;;;;5115679;28;21278;-78
2021/12/06 10:02:58;;;;;;;;;;;;;;;;;;5076502;28;19916;-79
2021/12/06 10:05:26;;;;;;;;;;;;;;;;;;5076210;28;19917;-76
2021/12/06 10:07:56;;;;;;;;;;;;;;;;;;5077958;28;19916;-75
2021/12/06 10:10:22;;;;;;;;;;;;;;;;;;5078386;28;20313;-77
2021/12/06 10:12:52;;;;;;;;;;;;;;;;;;5078322;28;19917;-77
2021/12/06 10:15:17;;;;;;;;;;;;;;;;;;5075013;28;19917;-76
2021/12/06 10:17:46;;;;;;;;;;;;;;;;;;5085557;28;19926;-77
2021/12/06 10:20:11;;;;;;;;;;;;;;;;;;5094623;28;19963;-77
2021/12/06 10:22:37;;;;;;;;;;;;;;;;;;5093545;28;19959;-76
2021/12/06 10:25:03;;;;;;;;;;;;;;;;;;5094692;28;19916;-77
2021/12/06 10:27:29;;;;;;;;;;;;;;;;;;5066706;28;19916;-77
2021/12/06 10:29:59;;;;;;;;;;;;;;;;;;5074114;28;19997;-77
2021/12/06 10:32:26;;;;;;;;;;;;;;;;;;5074130;28;19935;-77
2021/12/06 10:34:54;;;;;;;;;;;;;;;;;;5073899;28;19916;-78
2021/12/06 10:37:37;;;;;;;;;;;;;;;;;;5072651;28;20323;-79
2021/12/06 10:40:05;;;;;;;;;;;;;;;;;;5073946;28;19935;-78
2021/12/06 10:42:49;;;;;;;;;;;;;;;;;;5073780;28;19970;-78
2021/12/06 10:45:22;;;;;;;;;;;;;;;;;;5081739;28;19920;-79
2021/12/06 10:48:08;;;;;;;;;;;;;;;;;;5117475;28;20377;-80
2021/12/06 10:50:34;;;;;;;;;;;;;;;;;;5117822;28;19969;-78
2021/12/06 10:53:00;;;;;;;;;;;;;;;;;;5113264;28;19924;-76
2021/12/06 10:55:28;;;;;;;;;;;;;;;;;;5077121;28;19917;-82
2021/12/06 10:57:55;;;;;;;;;;;;;;;;;;5080625;28;20382;-80
2021/12/06 11:00:28;;;;;;;;;;;;;;;;;;5079455;28;19916;-78
2021/12/06 11:02:54;;;;;;;;;;;;;;;;;;5083344;28;20014;-77
2021/12/06 11:05:25;;;;;;;;;;;;;;;;;;5117085;28;19938;-79
2021/12/06 11:08:16;;;;;;;;;;;;;;;;;;5113253;28;20344;-78
2021/12/06 11:10:43;;;;;;;;;;;;;;;;;;5091616;28;19990;-77
2021/12/06 11:13:28;;;;;;;;;;;;;;;;;;5093888;28;20431;-77
2021/12/06 11:15:59;;;;;;;;;;;;;;;;;;5092102;28;20067;-77
2021/12/06 11:18:28;;;;;;;;;;;;;;;;;;5092707;28;19916;-76
2021/12/06 11:20:53;;;;;;;;;;;;;;;;;;5093931;28;20262;-77
2021/12/06 11:23:18;;;;;;;;;;;;;;;;;;5096649;28;20002;-79
2021/12/06 11:25:53;;;;;;;;;;;;;;;;;;5096841;28;20032;-78
2021/12/06 11:28:27;;;;;;;;;;;;;;;;;;5101268;28;19938;-79
2021/12/06 11:30:58;;;;;;;;;;;;;;;;;;5101527;28;20266;-78
2021/12/06 11:33:43;;;;;;;;;;;;;;;;;;5099986;28;19923;-78
2021/12/06 11:36:22;;;;;;;;;;;;;;;;;;5099939;28;19938;-78
2021/12/06 11:38:48;;;;;;;;;;;;;;;;;;5101469;28;19916;-78
2021/12/06 11:41:13;;;;;;;;;;;;;;;;;;5103265;28;19916;-78
2021/12/06 11:43:39;;;;;;;;;;;;;;;;;;5102681;28;19947;-77
2021/12/06 11:46:07;;;;;;;;;;;;;;;;;;5103336;28;20388;-78
2021/12/06 11:48:35;;;;;;;;;;;;;;;;;;5103389;28;19916;-78
2021/12/06 11:51:07;;;;;;;;;;;;;;;;;;5101617;28;19921;-77
2021/12/06 11:53:41;;;;;;;;;;;;;;;;;;5103865;28;19991;-78
2021/12/06 11:56:10;;;;;;;;;;;;;;;;;;5103309;28;19970;-77
2021/12/06 11:58:39;;;;;;;;;;;;;;;;;;5102133;28;20023;-78
2021/12/06 12:01:19;;;;;;;;;;;;;;;;;;5103812;28;19916;-77
2021/12/06 12:03:46;;;;;;;;;;;;;;;;;;5102852;28;19915;-78
2021/12/06 12:06:25;;;;;;;;;;;;;;;;;;5122571;28;19923;-77
2021/12/06 12:09:02;;;;;;;;;;;;;;;;;;5125240;28;19923;-77
2021/12/06 12:11:28;;;;;;;;;;;;;;;;;;5127370;28;19966;-77
2021/12/06 12:13:56;;;;;;;;;;;;;;;;;;5128744;28;19989;-78
2021/12/06 12:16:21;;;;;;;;;;;;;;;;;;5129514;28;19941;-78
2021/12/06 12:18:47;;;;;;;;;;;;;;;;;;5129211;28;19920;-78
2021/12/06 12:21:12;;;;;;;;;;;;;;;;;;5131694;28;20077;-79
2021/12/06 12:23:38;;;;;;;;;;;;;;;;;;5129885;28;19915;-78
2021/12/06 12:26:12;;;;;;;;;;;;;;;;;;5127103;28;19922;-79
2021/12/06 12:28:49;;;;;;;;;;;;;;;;;;5125645;28;19915;-79
2021/12/06 12:31:14;;;;;;;;;;;;;;;;;;5130315;28;19920;-77
2021/12/06 12:33:40;;;;;;;;;;;;;;;;;;5128161;28;19938;-77
2021/12/06 12:36:11;;;;;;;;;;;;;;;;;;5106205;28;20005;-77
2021/12/06 12:38:38;;;;;;;;;;;;;;;;;;5098926;28;19924;-77
2021/12/06 12:41:06;;;;;;;;;;;;;;;;;;5098465;28;19965;-77
2021/12/06 12:43:36;;;;;;;;;;;;;;;;;;5097482;28;19919;-79
2021/12/06 12:49:30;;;;;;;;;;;;;;;;;;5107731;28;19923;-77
2021/12/06 12:51:57;;;;;;;;;;;;;;;;;;5101035;28;20007;-77
2021/12/06 12:54:25;;;;;;;;;;;;;;;;;;5102424;28;20369;-77
2021/12/06 12:56:57;;;;;;;;;;;;;;;;;;5097777;28;19947;-78
2021/12/06 12:59:22;;;;;;;;;;;;;;;;;;5096121;28;19989;-78
2021/12/06 13:02:06;;;;;;;;;;;;;;;;;;5096884;28;20381;-77
2021/12/06 13:04:50;;;;;;;;;;;;;;;;;;5109785;28;19922;-77
2021/12/06 13:07:34;;;;;;;;;;;;;;;;;;5117423;28;19926;-77
2021/12/06 13:10:23;;;;;;;;;;;;;;;;;;5120413;28;20022;-77
2021/12/06 13:13:04;;;;;;;;;;;;;;;;;;5121143;28;20403;-78
2021/12/06 13:15:35;;;;;;;;;;;;;;;;;;5121641;28;19923;-78
2021/12/06 13:18:02;;;;;;;;;;;;;;;;;;5122093;28;20014;-78
2021/12/06 13:20:36;;;;;;;;;;;;;;;;;;5122712;28;20510;-77
2021/12/06 13:23:07;;;;;;;;;;;;;;;;;;5120969;28;19923;-77
2021/12/06 13:25:33;;;;;;;;;;;;;;;;;;5121453;28;19951;-77
2021/12/06 13:28:07;;;;;;;;;;;;;;;;;;5122799;27;19923;-77
2021/12/06 13:30:43;;;;;;;;;;;;;;;;;;5119517;28;19963;-79
2021/12/06 13:33:12;;;;;;;;;;;;;;;;;;5118358;28;20432;-77
2021/12/06 13:35:48;;;;;;;;;;;;;;;;;;5117706;28;19920;-78
2021/12/06 13:38:16;;;;;;;;;;;;;;;;;;5120754;28;19948;-78
2021/12/06 13:41:02;;;;;;;;;;;;;;;;;;5120771;28;19922;-78
2021/12/06 13:43:30;;;;;;;;;;;;;;;;;;5120767;28;20034;-79
2021/12/06 13:45:57;;;;;;;;;;;;;;;;;;5119995;28;20347;-77
2021/12/06 13:48:24;;;;;;;;;;;;;;;;;;5119637;28;19969;-79
2021/12/06 13:50:51;;;;;;;;;;;;;;;;;;5119476;28;19919;-78
2021/12/06 13:53:46;;;;;;;;;;;;;;;;;;5120551;28;20289;-79
2021/12/06 13:56:12;;;;;;;;;;;;;;;;;;5046564;28;19962;-79
2021/12/06 13:58:38;;;;;;;;;;;;;;;;;;5119086;28;19923;-79
2021/12/06 14:01:05;;;;;;;;;;;;;;;;;;5117486;28;19916;-77
2021/12/06 14:03:38;;;;;;;;;;;;;;;;;;5112317;28;20076;-80
2021/12/06 14:06:11;;;;;;;;;;;;;;;;;;5101036;28;19977;-80
2021/12/06 14:08:41;;;;;;;;;;;;;;;;;;5095822;28;20348;-76
2021/12/06 14:11:07;;;;;;;;;;;;;;;;;;5102791;28;19931;-79
2021/12/06 14:13:34;;;;;;;;;;;;;;;;;;5101955;28;19916;-81
2021/12/06 14:16:02;;;;;;;;;;;;;;;;;;5102814;28;19916;-80
2021/12/06 14:18:29;;;;;;;;;;;;;;;;;;5103513;28;19965;-79
2021/12/06 14:20:56;;;;;;;;;;;;;;;;;;5101070;28;20008;-79
2021/12/06 14:23:23;;;;;;;;;;;;;;;;;;5100116;28;20293;-80
2021/12/06 14:25:50;;;;;;;;;;;;;;;;;;5100700;28;19969;-81
2021/12/06 14:28:17;;;;;;;;;;;;;;;;;;5098390;28;19920;-78
2021/12/06 14:30:43;;;;;;;;;;;;;;;;;;5099279;28;19973;-80
2021/12/06 14:33:08;;;;;;;;;;;;;;;;;;5099162;28;19920;-79
2021/12/06 14:35:34;;;;;;;;;;;;;;;;;;5096359;28;20332;-78
2021/12/06 14:37:59;;;;;;;;;;;;;;;;;;5095602;28;19963;-80
2021/12/06 14:40:25;;;;;;;;;;;;;;;;;;5100725;28;20006;-80
2021/12/06 14:42:51;;;;;;;;;;;;;;;;;;5097155;28;19916;-78
2021/12/06 14:45:17;;;;;;;;;;;;;;;;;;5096235;28;19931;-79
2021/12/06 14:47:43;;;;;;;;;;;;;;;;;;5098470;28;19927;-79
2021/12/06 14:50:09;;;;;;;;;;;;;;;;;;5098158;28;20347;-76
2021/12/06 14:52:39;;;;;;;;;;;;;;;;;;5097149;28;19916;-80
2021/12/06 14:55:47;;;;;;;;;;;;;;;;;;5080140;28;19920;-80
2021/12/06 14:58:02;;;;;;;;;;;;;;;;;;5094746;28;19969;-77
2021/12/06 15:00:42;;;;;;;;;;;;;;;;;;5096309;28;20335;-75
2021/12/06 15:03:09;;;;;;;;;;;;;;;;;;5095899;28;19916;-76
2021/12/06 15:05:43;;;;;;;;;;;;;;;;;;5114528;28;19959;-77
2021/12/06 15:08:14;;;;;;;;;;;;;;;;;;5113642;28;19915;-77
2021/12/06 15:10:49;;;;;;;;;;;;;;;;;;5113353;28;20369;-76
2021/12/06 15:13:14;;;;;;;;;;;;;;;;;;5113773;28;19915;-77
2021/12/06 15:15:44;;;;;;;;;;;;;;;;;;5112969;28;19958;-78
2021/12/06 15:18:11;;;;;;;;;;;;;;;;;;5113983;28;19916;-77
2021/12/06 15:20:37;;;;;;;;;;;;;;;;;;5114121;28;20002;-78
2021/12/06 15:23:05;;;;;;;;;;;;;;;;;;5114039;28;20384;-77
2021/12/06 15:25:31;;;;;;;;;;;;;;;;;;5114115;28;19915;-77
2021/12/06 15:27:56;;;;;;;;;;;;;;;;;;5089707;28;20399;-77
2021/12/06 15:30:24;;;;;;;;;;;;;;;;;;5084842;28;19920;-76
2021/12/06 15:32:50;;;;;;;;;;;;;;;;;;5093635;28;19969;-76
2021/12/06 15:35:28;;;;;;;;;;;;;;;;;;5093472;28;20378;-79
2021/12/06 15:37:53;;;;;;;;;;;;;;;;;;5093811;28;19916;-77
2021/12/06 15:40:19;;;;;;;;;;;;;;;;;;5093674;28;19916;-77
2021/12/06 15:42:44;;;;;;;;;;;;;;;;;;5093572;28;19970;-77
2021/12/06 15:45:09;;;;;;;;;;;;;;;;;;5083491;28;19942;-77
2021/12/06 15:47:45;;;;;;;;;;;;;;;;;;5085066;28;19916;-77
2021/12/06 15:50:18;;;;;;;;;;;;;;;;;;5065716;28;19968;-77
2021/12/06 15:52:44;;;;;;;;;;;;;;;;;;5086024;28;19920;-77
2021/12/06 15:55:12;;;;;;;;;;;;;;;;;;5084672;28;19923;-76
2021/12/06 15:57:40;;;;;;;;;;;;;;;;;;5088430;28;19965;-76
2021/12/06 16:00:17;;;;;;;;;;;;;;;;;;5090096;28;19970;-77
2021/12/06 16:02:44;;;;;;;;;;;;;;;;;;5084695;28;19923;-78
2021/12/06 16:05:18;;;;;;;;;;;;;;;;;;5083262;28;20314;-77
2021/12/06 16:07:48;;;;;;;;;;;;;;;;;;5081414;28;19924;-78
2021/12/06 16:10:14;;;;;;;;;;;;;;;;;;5085720;28;20327;-76
2021/12/06 16:12:48;;;;;;;;;;;;;;;;;;5082406;28;20370;-77
2021/12/06 16:15:15;;;;;;;;;;;;;;;;;;5076816;28;19916;-77
2021/12/06 16:17:40;;;;;;;;;;;;;;;;;;5076784;28;19921;-74
2021/12/06 16:20:06;;;;;;;;;;;;;;;;;;5076813;28;20393;-75
2021/12/06 16:22:31;;;;;;;;;;;;;;;;;;5082839;28;19917;-77
2021/12/06 16:24:57;;;;;;;;;;;;;;;;;;5087050;28;19944;-80
2021/12/06 16:27:22;;;;;;;;;;;;;;;;;;5095912;28;19955;-82
2021/12/06 16:29:50;;;;;;;;;;;;;;;;;;5090425;28;19960;-81
2021/12/06 16:32:18;;;;;;;;;;;;;;;;;;5099377;28;19924;-79
2021/12/06 16:34:44;;;;;;;;;;;;;;;;;;5117197;28;19942;-80
2021/12/06 16:37:19;;;;;;;;;;;;;;;;;;5121259;28;20014;-80
2021/12/06 16:39:56;;;;;;;;;;;;;;;;;;5127433;28;19916;-82
2021/12/06 16:42:29;;;;;;;;;;;;;;;;;;5124360;28;19951;-82
2021/12/06 16:45:03;;;;;;;;;;;;;;;;;;5123748;28;19937;-81
2021/12/06 16:47:30;;;;;;;;;;;;;;;;;;5121781;28;19922;-81
2021/12/06 16:49:55;;;;;;;;;;;;;;;;;;5122838;28;19951;-83
2021/12/06 16:52:24;;;;;;;;;;;;;;;;;;5124333;28;19993;-84
2021/12/06 16:55:17;;;;;;;;;;;;;;;;;;5124948;28;20010;-85
2021/12/06 16:57:48;;;;;;;;;;;;;;;;;;5092324;28;19923;-78
2021/12/06 17:00:24;;;;;;;;;;;;;;;;;;5121275;28;19995;-78
2021/12/06 17:03:03;;;;;;;;;;;;;;;;;;5117829;28;19961;-75
2021/12/06 17:05:34;;;;;;;;;;;;;;;;;;5075810;28;19982;-76
2021/12/06 17:08:07;;;;;;;;;;;;;;;;;;5075873;28;19916;-79
2021/12/06 17:10:33;;;;;;;;;;;;;;;;;;5077870;28;19965;-78